Time;durP1;ratioP1;P1;durP2;ratioP2;P2;SDS_P1;SDS_P2;PMS_P1;PMS_P2;Temp;Humidity;BMP_temperature;BMP_pressure;BME280_temperature;BME280_humidity;BME280_pressure;Samples;Min_cycle;Max_cycle;Signal;HPM_P1;HPM_P2
2023/01/10 00:01:32;;;;;;;12.87;4.60;;;7.10;99.90;;;;;;5135821;27;20473;-60
2023/01/10 00:03:59;;;;;;;9.17;4.10;;;7.00;99.90;;;;;;5135759;27;20436;-60
2023/01/10 00:06:26;;;;;;;10.10;4.00;;;7.10;99.90;;;;;;5135656;27;20442;-60
2023/01/10 00:08:53;;;;;;;8.13;3.90;;;7.10;99.90;;;;;;5135601;27;20474;-60
2023/01/10 00:14:05;;;;;;;10.00;4.10;;;7.10;99.90;;;;;;5134814;27;20495;-60
2023/01/10 00:16:32;;;;;;;10.63;3.63;;;7.10;99.90;;;;;;5135510;27;20442;-60
2023/01/10 00:18:58;;;;;;;13.23;3.67;;;7.10;99.90;;;;;;5135565;27;20427;-60
2023/01/10 00:21:27;;;;;;;9.93;4.50;;;7.20;99.90;;;;;;5135014;27;20997;-60
2023/01/10 00:23:54;;;;;;;11.20;4.30;;;7.10;99.90;;;;;;5135356;27;20458;-60
2023/01/10 00:26:21;;;;;;;5.70;3.10;;;7.20;99.90;;;;;;5135031;27;20963;-60
2023/01/10 00:28:47;;;;;;;11.30;3.50;;;7.20;99.90;;;;;;5134914;27;21020;-61
2023/01/10 00:31:15;;;;;;;12.10;4.10;;;7.20;99.90;;;;;;5135096;27;20437;-61
2023/01/10 00:33:42;;;;;;;7.27;3.37;;;7.20;99.90;;;;;;5134870;27;20973;-60
2023/01/10 00:36:10;;;;;;;10.03;3.50;;;7.20;99.90;;;;;;5135197;27;20442;-60
2023/01/10 00:38:37;;;;;;;8.87;2.50;;;7.20;99.90;;;;;;5135092;27;20493;-60
2023/01/10 00:43:55;;;;;;;7.30;2.83;;;7.20;99.90;;;;;;5134793;27;20450;-60
2023/01/10 00:43:55;;;;;;;7.87;3.90;;;7.20;99.90;;;;;;5134721;27;20966;-60
2023/01/10 00:46:24;;;;;;;9.93;3.00;;;7.30;99.90;;;;;;5134907;27;20577;-60
2023/01/10 00:48:51;;;;;;;9.20;3.60;;;7.20;99.90;;;;;;5134847;27;20505;-60
2023/01/10 00:51:18;;;;;;;9.77;3.43;;;7.30;99.90;;;;;;5134836;27;20467;-60
2023/01/10 00:53:44;;;;;;;9.00;2.97;;;7.30;99.90;;;;;;5134508;27;20821;-60
2023/01/10 00:56:11;;;;;;;10.10;3.37;;;7.30;99.90;;;;;;5134810;27;20863;-60
2023/01/10 00:58:38;;;;;;;7.97;3.43;;;7.30;99.90;;;;;;5134752;27;20458;-60
2023/01/10 01:01:11;;;;;;;13.13;3.20;;;7.30;99.90;;;;;;5134340;27;20458;-60
2023/01/10 01:03:39;;;;;;;9.10;3.03;;;7.30;99.90;;;;;;5134726;27;20434;-60
2023/01/10 01:06:07;;;;;;;6.90;2.60;;;7.40;99.90;;;;;;5134709;27;20823;-60
2023/01/10 01:08:34;;;;;;;13.37;3.47;;;7.40;99.90;;;;;;5134503;27;20450;-60
2023/01/10 01:11:01;;;;;;;6.30;2.90;;;7.40;99.90;;;;;;5134494;27;20450;-60
2023/01/10 01:13:28;;;;;;;14.53;3.40;;;7.40;99.90;;;;;;5134534;27;20447;-60
2023/01/10 01:15:58;;;;;;;12.30;3.40;;;7.40;99.90;;;;;;5134405;27;20878;-60
2023/01/10 01:18:25;;;;;;;8.70;3.00;;;7.40;99.90;;;;;;5134495;27;20447;-60
2023/01/10 01:20:56;;;;;;;17.67;3.20;;;7.40;99.90;;;;;;5134490;27;20434;-60
2023/01/10 01:23:23;;;;;;;9.37;2.50;;;7.40;99.90;;;;;;5134438;27;20426;-60
2023/01/10 01:25:51;;;;;;;10.17;3.13;;;7.40;99.90;;;;;;5133603;27;20442;-60
2023/01/10 01:28:18;;;;;;;7.53;2.70;;;7.40;99.90;;;;;;5134348;27;20504;-60
2023/01/10 01:30:44;;;;;;;10.43;3.63;;;7.40;99.90;;;;;;5134314;28;20466;-60
2023/01/10 01:33:11;;;;;;;10.17;2.80;;;7.50;99.90;;;;;;5134315;28;20470;-60
2023/01/10 01:35:41;;;;;;;9.00;3.37;;;7.50;99.90;;;;;;5134284;28;20988;-60
2023/01/10 01:38:09;;;;;;;11.73;3.43;;;7.50;99.90;;;;;;5134576;28;20454;-60
2023/01/10 01:40:37;;;;;;;11.73;3.40;;;7.50;99.90;;;;;;5133975;28;20487;-60
2023/01/10 01:43:04;;;;;;;8.53;3.10;;;7.50;99.90;;;;;;5134365;28;20481;-60
2023/01/10 01:45:35;;;;;;;12.23;3.23;;;7.50;99.90;;;;;;5134293;28;20476;-60
2023/01/10 01:48:12;;;;;;;8.30;2.63;;;7.30;99.90;;;;;;5134412;28;20445;-59
2023/01/10 01:50:45;;;;;;;8.43;2.73;;;7.30;99.90;;;;;;5134153;28;20469;-60
2023/01/10 01:53:18;;;;;;;12.00;3.27;;;7.40;99.90;;;;;;5133870;28;20976;-59
2023/01/10 01:55:46;;;;;;;8.30;3.73;;;7.30;99.90;;;;;;5134322;28;20902;-60
2023/01/10 01:58:17;;;;;;;13.20;3.67;;;7.30;99.90;;;;;;5134275;28;20446;-60
2023/01/10 02:00:44;;;;;;;8.07;2.13;;;7.30;99.90;;;;;;5134203;28;20426;-60
2023/01/10 02:03:12;;;;;;;8.93;2.83;;;7.30;99.90;;;;;;5134176;28;20482;-60
2023/01/10 02:05:42;;;;;;;11.70;3.67;;;7.20;99.90;;;;;;5134277;28;20465;-60
2023/01/10 02:08:09;;;;;;;7.97;2.70;;;7.10;99.90;;;;;;5133862;28;20446;-60
2023/01/10 02:10:41;;;;;;;11.70;3.00;;;7.10;99.90;;;;;;5134045;28;20482;-60
2023/01/10 02:13:11;;;;;;;15.87;4.47;;;7.10;99.90;;;;;;5133792;28;20501;-60
2023/01/10 02:15:38;;;;;;;9.57;3.13;;;7.00;99.90;;;;;;5133938;28;20525;-60
2023/01/10 02:18:05;;;;;;;12.23;3.80;;;6.90;99.90;;;;;;5134319;28;20453;-60
2023/01/10 02:20:39;;;;;;;9.33;2.77;;;6.90;99.90;;;;;;5134205;28;20439;-60
2023/01/10 02:23:29;;;;;;;12.60;2.87;;;6.80;99.90;;;;;;5134235;28;20545;-60
2023/01/10 02:26:35;;;;;;;8.30;2.57;;;6.90;99.90;;;;;;5133804;28;20529;-60
2023/01/10 02:29:27;;;;;;;6.70;2.73;;;6.80;99.90;;;;;;5133936;28;20533;-60
2023/01/10 02:32:15;;;;;;;11.00;3.30;;;6.80;99.90;;;;;;5133939;28;20466;-60
2023/01/10 02:34:51;;;;;;;11.00;2.63;;;6.90;99.90;;;;;;5131634;28;20440;-60
2023/01/10 02:37:23;;;;;;;5.80;2.90;;;6.80;99.90;;;;;;5134454;27;20484;-60
2023/01/10 02:39:55;;;;;;;10.67;2.63;;;6.80;99.90;;;;;;5137476;27;20449;-60
2023/01/10 02:42:29;;;;;;;13.83;3.60;;;6.80;99.90;;;;;;5137045;27;20464;-60
2023/01/10 02:45:05;;;;;;;16.03;4.70;;;6.70;99.90;;;;;;5137505;27;20452;-60
2023/01/10 02:47:37;;;;;;;9.20;3.10;;;6.70;99.90;;;;;;5137434;27;20461;-60
2023/01/10 02:50:39;;;;;;;11.00;2.67;;;6.70;99.90;;;;;;5137227;27;20501;-60
2023/01/10 02:53:10;;;;;;;6.23;3.53;;;6.80;99.90;;;;;;5133973;27;20499;-60
2023/01/10 02:55:51;;;;;;;7.77;2.20;;;6.80;99.90;;;;;;5137435;27;20461;-59
2023/01/10 02:58:30;;;;;;;13.00;3.97;;;6.80;99.90;;;;;;5137608;27;20437;-60
2023/01/10 03:01:06;;;;;;;7.53;2.93;;;6.70;99.90;;;;;;5137447;27;20438;-60
2023/01/10 03:03:42;;;;;;;9.20;2.73;;;6.80;99.90;;;;;;5137820;27;20441;-60
2023/01/10 03:06:24;;;;;;;7.57;2.80;;;6.80;99.90;;;;;;5137560;27;20445;-60
2023/01/10 03:08:58;;;;;;;10.50;3.50;;;6.80;99.90;;;;;;5137846;27;20529;-60
2023/01/10 03:11:42;;;;;;;15.43;3.67;;;6.80;99.90;;;;;;5138552;27;20473;-60
2023/01/10 03:14:15;;;;;;;14.07;3.23;;;6.90;99.90;;;;;;5138566;27;20427;-60
2023/01/10 03:16:47;;;;;;;8.90;2.70;;;6.90;99.90;;;;;;5137489;27;20427;-59
2023/01/10 03:19:19;;;;;;;11.30;2.80;;;6.90;99.90;;;;;;5137597;27;20460;-59
2023/01/10 03:21:52;;;;;;;12.30;3.27;;;6.80;99.90;;;;;;5136654;27;21003;-60
2023/01/10 03:24:24;;;;;;;10.30;2.17;;;6.80;99.90;;;;;;5136559;27;20803;-59
2023/01/10 03:26:57;;;;;;;10.87;3.03;;;6.80;99.90;;;;;;5136691;27;20905;-60
2023/01/10 03:29:29;;;;;;;11.23;3.40;;;6.80;99.90;;;;;;5136529;27;20462;-60
2023/01/10 03:32:00;;;;;;;11.03;3.93;;;6.70;99.90;;;;;;5136499;27;20469;-60
2023/01/10 03:34:28;;;;;;;7.27;3.00;;;6.70;99.90;;;;;;5136339;27;20434;-60
2023/01/10 03:37:04;;;;;;;9.20;2.70;;;6.70;99.90;;;;;;5136414;27;20456;-60
2023/01/10 03:39:35;;;;;;;7.40;2.70;;;6.70;99.90;;;;;;5136141;27;20533;-60
2023/01/10 03:42:08;;;;;;;12.30;3.10;;;6.70;99.90;;;;;;5136128;27;20476;-60
2023/01/10 03:44:43;;;;;;;19.43;2.97;;;6.70;99.90;;;;;;5136251;27;20443;-60
2023/01/10 03:47:18;;;;;;;11.20;4.10;;;6.60;99.90;;;;;;5136257;27;20423;-60
2023/01/10 03:49:49;;;;;;;14.37;2.87;;;6.60;99.90;;;;;;5135194;27;20567;-60
2023/01/10 03:52:18;;;;;;;12.33;3.50;;;6.60;99.90;;;;;;5135965;27;20459;-60
2023/01/10 03:54:46;;;;;;;15.47;3.30;;;6.70;99.90;;;;;;5135697;27;20943;-60
2023/01/10 03:57:18;;;;;;;8.10;3.40;;;6.70;99.90;;;;;;5135959;27;20461;-60
2023/01/10 03:59:45;;;;;;;12.10;3.07;;;6.70;99.90;;;;;;5135873;27;20464;-60
2023/01/10 04:02:12;;;;;;;13.83;4.07;;;6.70;99.90;;;;;;5135357;27;20989;-60
2023/01/10 04:04:38;;;;;;;17.83;2.90;;;6.60;99.90;;;;;;5135483;27;20953;-60
2023/01/10 04:07:06;;;;;;;10.67;3.30;;;6.60;99.90;;;;;;5135771;27;20448;-60
2023/01/10 04:09:33;;;;;;;9.90;3.43;;;6.60;99.90;;;;;;5135565;27;20460;-60
2023/01/10 04:12:00;;;;;;;7.20;2.10;;;6.60;99.90;;;;;;5135492;27;20829;-61
2023/01/10 04:14:27;;;;;;;14.37;3.30;;;6.70;99.90;;;;;;5135631;27;20495;-60
2023/01/10 04:16:54;;;;;;;9.33;2.83;;;6.70;99.90;;;;;;5135524;27;20510;-60
2023/01/10 04:19:20;;;;;;;8.20;3.03;;;6.70;99.90;;;;;;5135460;27;20447;-61
2023/01/10 04:21:47;;;;;;;15.37;3.53;;;6.70;99.90;;;;;;5135250;27;20461;-60
2023/01/10 04:24:15;;;;;;;15.30;3.53;;;6.60;99.90;;;;;;5135392;27;20441;-60
2023/01/10 04:26:42;;;;;;;12.13;3.37;;;6.70;99.90;;;;;;5135247;27;20473;-60
2023/01/10 04:29:09;;;;;;;15.00;4.33;;;6.80;99.90;;;;;;5134936;27;20812;-60
2023/01/10 04:31:35;;;;;;;10.43;3.37;;;6.70;99.90;;;;;;5135162;27;20486;-60
2023/01/10 04:34:02;;;;;;;8.20;2.97;;;6.70;99.90;;;;;;5134877;27;20972;-60
2023/01/10 04:36:29;;;;;;;9.17;3.00;;;6.80;99.90;;;;;;5135292;27;20433;-60
2023/01/10 04:38:56;;;;;;;15.60;4.10;;;6.80;99.90;;;;;;5134797;27;20946;-60
2023/01/10 04:41:24;;;;;;;12.20;3.17;;;6.80;99.90;;;;;;5134566;27;20900;-61
2023/01/10 04:43:50;;;;;;;16.57;3.40;;;6.80;99.90;;;;;;5135078;27;20457;-60
2023/01/10 04:46:17;;;;;;;11.00;2.63;;;6.80;99.90;;;;;;5134950;27;20448;-60
2023/01/10 04:48:44;;;;;;;14.93;3.30;;;6.80;99.90;;;;;;5135013;27;20449;-60
2023/01/10 04:51:11;;;;;;;11.23;3.10;;;6.80;99.90;;;;;;5134763;27;20477;-61
2023/01/10 04:53:38;;;;;;;14.43;3.60;;;6.70;99.90;;;;;;5134959;27;20857;-60
2023/01/10 04:56:06;;;;;;;12.70;2.90;;;6.70;99.90;;;;;;5134825;27;20480;-60
2023/01/10 04:58:35;;;;;;;17.93;3.60;;;6.70;99.90;;;;;;5134858;27;20516;-60
2023/01/10 05:01:07;;;;;;;12.63;3.70;;;6.70;99.90;;;;;;5134487;27;20445;-61
2023/01/10 05:03:34;;;;;;;13.97;3.73;;;6.60;99.90;;;;;;5134776;27;20458;-61
2023/01/10 05:06:01;;;;;;;8.00;3.03;;;6.60;99.90;;;;;;5134712;27;20456;-60
2023/01/10 05:08:28;;;;;;;9.30;3.13;;;6.60;99.90;;;;;;5134718;27;20464;-59
2023/01/10 05:10:54;;;;;;;14.47;4.20;;;6.60;99.90;;;;;;5134525;27;20474;-60
2023/01/10 05:13:21;;;;;;;15.03;3.27;;;6.60;99.90;;;;;;5134664;27;20530;-60
2023/01/10 05:15:49;;;;;;;12.63;3.60;;;6.50;99.90;;;;;;5134992;27;20552;-59
2023/01/10 05:18:16;;;;;;;17.20;5.03;;;6.50;99.90;;;;;;5134259;27;20449;-59
2023/01/10 05:20:42;;;;;;;11.50;3.83;;;6.60;99.90;;;;;;5134232;27;21097;-60
2023/01/10 05:23:09;;;;;;;25.23;4.00;;;6.60;99.90;;;;;;5134370;27;20462;-59
2023/01/10 05:25:36;;;;;;;9.97;3.63;;;6.60;99.90;;;;;;5134407;27;20465;-59
2023/01/10 05:28:03;;;;;;;18.60;4.17;;;6.60;99.90;;;;;;5134304;27;20464;-59
2023/01/10 05:30:29;;;;;;;14.33;3.60;;;6.70;99.90;;;;;;5134270;28;20489;-60
2023/01/10 05:32:57;;;;;;;18.47;2.60;;;6.70;99.90;;;;;;5133984;28;20981;-60
2023/01/10 05:35:24;;;;;;;12.13;3.57;;;6.80;99.90;;;;;;5134543;28;20441;-60
2023/01/10 05:37:51;;;;;;;14.60;3.57;;;6.80;99.90;;;;;;5134358;28;20461;-60
2023/01/10 05:40:18;;;;;;;11.00;3.00;;;6.80;99.90;;;;;;5133865;28;21013;-60
2023/01/10 05:42:45;;;;;;;12.20;3.67;;;6.80;99.90;;;;;;5134227;28;20482;-60
2023/01/10 05:45:12;;;;;;;11.13;2.97;;;6.90;99.90;;;;;;5134250;28;20453;-60
2023/01/10 05:47:38;;;;;;;17.83;3.83;;;6.90;99.90;;;;;;5133883;28;20967;-59
2023/01/10 05:50:08;;;;;;;13.60;3.87;;;6.80;99.90;;;;;;5133836;28;21026;-59
2023/01/10 05:52:34;;;;;;;15.27;3.63;;;6.90;99.90;;;;;;5134096;28;20473;-59
2023/01/10 05:55:01;;;;;;;19.63;3.67;;;6.90;99.90;;;;;;5134106;28;20454;-60
2023/01/10 05:57:28;;;;;;;9.77;2.93;;;6.90;99.90;;;;;;5134188;28;20489;-59
2023/01/10 05:59:54;;;;;;;9.67;3.27;;;6.90;99.90;;;;;;5134166;28;20454;-60
2023/01/10 06:02:21;;;;;;;17.33;3.20;;;7.00;99.90;;;;;;5134160;28;20473;-60
2023/01/10 06:04:48;;;;;;;17.23;3.30;;;7.00;99.90;;;;;;5133919;28;20968;-60
2023/01/10 06:07:16;;;;;;;11.73;3.37;;;7.00;99.90;;;;;;5134091;28;20446;-60
2023/01/10 06:09:43;;;;;;;12.40;3.70;;;7.00;99.90;;;;;;5134050;28;20454;-60
2023/01/10 06:12:10;;;;;;;15.43;3.40;;;6.90;99.90;;;;;;5134163;27;20494;-60
2023/01/10 06:14:36;;;;;;;14.83;4.20;;;6.90;99.90;;;;;;5138003;27;20454;-60
2023/01/10 06:17:07;;;;;;;16.90;3.80;;;7.00;99.90;;;;;;5137854;27;20441;-60
2023/01/10 06:19:34;;;;;;;20.87;4.33;;;6.90;99.90;;;;;;5138720;27;20434;-60
2023/01/10 06:22:00;;;;;;;16.87;4.10;;;7.00;99.90;;;;;;5137429;27;20977;-60
2023/01/10 06:24:28;;;;;;;29.33;4.83;;;7.00;99.90;;;;;;5137754;27;20437;-60
2023/01/10 06:26:55;;;;;;;17.43;6.20;;;7.00;99.90;;;;;;5137792;27;20446;-60
2023/01/10 06:29:22;;;;;;;12.73;3.60;;;6.90;99.90;;;;;;5137618;27;20457;-60
2023/01/10 06:31:48;;;;;;;10.87;3.83;;;6.90;99.90;;;;;;5137533;27;20481;-60
2023/01/10 06:34:15;;;;;;;22.20;6.10;;;6.90;99.90;;;;;;5137664;27;20450;-60
2023/01/10 06:36:42;;;;;;;18.00;3.40;;;6.80;99.90;;;;;;5137563;27;20453;-60
2023/01/10 06:39:09;;;;;;;17.73;4.70;;;6.80;99.90;;;;;;5137211;27;20442;-60
2023/01/10 06:41:37;;;;;;;15.33;3.63;;;6.70;99.90;;;;;;5137412;27;20461;-60
2023/01/10 06:44:04;;;;;;;25.80;5.20;;;6.70;99.90;;;;;;5137518;27;20425;-60
2023/01/10 06:46:31;;;;;;;16.67;4.33;;;6.60;99.90;;;;;;5137048;27;20809;-60
2023/01/10 06:48:57;;;;;;;20.43;4.23;;;6.60;99.90;;;;;;5137310;27;20551;-60
2023/01/10 06:51:24;;;;;;;25.00;4.70;;;6.60;99.90;;;;;;5136968;27;20856;-60
2023/01/10 06:53:51;;;;;;;16.57;3.77;;;6.60;99.90;;;;;;5138750;27;20438;-59
2023/01/10 06:56:17;;;;;;;18.53;4.13;;;6.50;99.90;;;;;;5136796;27;20950;-60
2023/01/10 06:58:48;;;;;;;20.20;4.57;;;6.60;99.90;;;;;;5137192;27;20450;-60
2023/01/10 07:01:17;;;;;;;12.73;3.70;;;6.50;99.90;;;;;;5136967;27;20449;-60
2023/01/10 07:03:44;;;;;;;22.13;5.00;;;6.60;99.90;;;;;;5136766;27;20898;-60
2023/01/10 07:06:11;;;;;;;15.07;4.53;;;6.60;99.90;;;;;;5137066;27;20457;-60
2023/01/10 07:08:39;;;;;;;18.10;3.50;;;6.60;99.90;;;;;;5136648;27;20945;-60
2023/01/10 07:11:06;;;;;;;17.77;3.87;;;6.60;99.90;;;;;;5136833;27;20490;-60
2023/01/10 07:13:33;;;;;;;17.47;3.80;;;6.60;99.90;;;;;;5136896;27;20442;-60
2023/01/10 07:16:06;;;;;;;24.10;4.37;;;6.50;99.90;;;;;;5136999;27;20457;-60
2023/01/10 07:18:34;;;;;;;18.07;4.37;;;6.50;99.90;;;;;;5136634;27;20924;-60
2023/01/10 07:21:01;;;;;;;19.17;5.03;;;6.50;99.90;;;;;;5136810;27;20440;-60
2023/01/10 07:23:29;;;;;;;22.13;4.50;;;6.50;99.90;;;;;;5137135;27;20433;-60
2023/01/10 07:25:56;;;;;;;15.97;3.47;;;6.50;99.90;;;;;;5136369;27;20999;-60
2023/01/10 07:28:23;;;;;;;13.03;3.63;;;6.60;99.90;;;;;;5136735;27;20441;-60
2023/01/10 07:30:50;;;;;;;28.70;4.50;;;6.60;99.90;;;;;;5136362;27;20523;-60
2023/01/10 07:33:18;;;;;;;19.13;4.27;;;6.60;99.90;;;;;;5136377;27;20462;-60
2023/01/10 07:35:45;;;;;;;24.77;4.77;;;6.60;99.90;;;;;;5136641;27;20453;-60
2023/01/10 07:38:11;;;;;;;12.20;4.43;;;6.60;99.90;;;;;;5136675;27;20437;-60
2023/01/10 07:40:38;;;;;;;24.23;6.47;;;6.60;99.90;;;;;;5136013;27;20461;-60
2023/01/10 07:43:05;;;;;;;18.70;6.37;;;6.70;99.90;;;;;;5136421;27;20473;-60
2023/01/10 07:45:31;;;;;;;19.30;4.37;;;6.70;99.90;;;;;;5136137;27;20454;-60
2023/01/10 07:47:58;;;;;;;15.37;3.63;;;6.60;99.90;;;;;;5136189;27;20447;-60
2023/01/10 07:50:29;;;;;;;15.20;3.97;;;6.60;99.90;;;;;;5136090;27;20461;-60
2023/01/10 07:52:56;;;;;;;12.67;3.67;;;6.50;99.90;;;;;;5136092;27;20467;-59
2023/01/10 07:55:23;;;;;;;18.97;4.67;;;6.50;99.90;;;;;;5135672;27;20442;-59
2023/01/10 07:57:50;;;;;;;18.17;4.73;;;6.50;99.90;;;;;;5135903;27;20455;-60
2023/01/10 08:00:18;;;;;;;14.87;4.30;;;6.50;99.90;;;;;;5135950;27;20453;-60
2023/01/10 08:02:45;;;;;;;22.93;4.57;;;6.60;99.90;;;;;;5135856;27;20808;-60
2023/01/10 08:05:12;;;;;;;17.13;3.90;;;6.60;99.90;;;;;;5135882;27;20431;-60
2023/01/10 08:07:40;;;;;;;17.33;4.00;;;6.60;99.90;;;;;;5136248;27;20450;-60
2023/01/10 08:10:08;;;;;;;14.50;3.43;;;6.50;99.90;;;;;;5135652;27;20460;-60
2023/01/10 08:12:34;;;;;;;20.80;3.50;;;6.40;99.90;;;;;;5135198;27;21023;-60
2023/01/10 08:15:01;;;;;;;18.97;5.47;;;6.40;99.90;;;;;;5135702;27;20449;-60
2023/01/10 08:17:28;;;;;;;21.60;3.87;;;6.40;99.90;;;;;;5135579;27;20441;-60
2023/01/10 08:19:55;;;;;;;18.30;4.60;;;6.30;99.90;;;;;;5135094;27;20815;-60
2023/01/10 08:22:21;;;;;;;31.63;5.97;;;6.30;99.90;;;;;;5135390;27;20461;-60
2023/01/10 08:24:49;;;;;;;15.60;3.40;;;6.30;99.90;;;;;;5135514;27;20433;-59
2023/01/10 08:27:16;;;;;;;13.50;3.60;;;6.30;99.90;;;;;;5135527;27;20454;-59
2023/01/10 08:29:43;;;;;;;13.43;3.60;;;6.30;99.90;;;;;;5135312;27;20453;-59
2023/01/10 08:32:09;;;;;;;24.27;3.90;;;6.30;99.90;;;;;;5135200;27;20886;-59
2023/01/10 08:34:36;;;;;;;16.23;3.37;;;6.30;99.90;;;;;;5135733;27;20447;-59
2023/01/10 08:37:03;;;;;;;25.93;4.40;;;6.40;99.90;;;;;;5134836;27;20441;-59
2023/01/10 08:39:30;;;;;;;17.37;3.83;;;6.50;99.90;;;;;;5134740;27;20454;-59
2023/01/10 08:41:58;;;;;;;24.23;4.10;;;6.50;99.90;;;;;;5134693;27;20465;-59
2023/01/10 08:44:25;;;;;;;17.00;4.17;;;6.60;99.90;;;;;;5135661;27;20445;-59
2023/01/10 08:46:52;;;;;;;14.70;3.80;;;6.60;99.90;;;;;;5134962;27;20499;-59
2023/01/10 08:49:18;;;;;;;17.17;3.70;;;6.70;99.90;;;;;;5134880;27;20461;-59
2023/01/10 08:51:45;;;;;;;16.27;4.37;;;6.70;99.90;;;;;;5134506;27;21024;-60
2023/01/10 08:54:12;;;;;;;15.07;4.10;;;6.70;99.90;;;;;;5134900;27;20450;-59
2023/01/10 08:56:39;;;;;;;13.70;3.23;;;6.80;99.90;;;;;;5134694;27;20450;-59
2023/01/10 08:59:08;;;;;;;19.73;3.60;;;6.80;99.90;;;;;;5134798;27;20480;-59
2023/01/10 09:01:35;;;;;;;12.93;3.97;;;6.90;99.90;;;;;;5134726;27;20462;-59
2023/01/10 09:04:01;;;;;;;12.03;3.33;;;6.90;99.90;;;;;;5134851;27;20783;-59
2023/01/10 09:06:28;;;;;;;12.93;3.70;;;7.00;99.90;;;;;;5135065;27;20430;-59
2023/01/10 09:08:55;;;;;;;20.67;3.73;;;7.00;99.90;;;;;;5134704;27;20443;-59
2023/01/10 09:11:22;;;;;;;15.43;3.60;;;7.00;99.90;;;;;;5134600;27;20539;-59
2023/01/10 09:13:49;;;;;;;15.30;4.63;;;7.10;99.90;;;;;;5134712;27;20447;-59
2023/01/10 09:16:17;;;;;;;23.57;4.10;;;7.10;99.90;;;;;;5134522;27;20431;-59
2023/01/10 09:18:44;;;;;;;28.00;4.77;;;7.20;99.90;;;;;;5134544;27;20794;-59
2023/01/10 09:21:11;;;;;;;19.73;4.67;;;7.20;99.90;;;;;;5134645;27;20465;-59
2023/01/10 09:23:38;;;;;;;14.10;3.60;;;7.30;99.90;;;;;;5134521;27;20450;-60
2023/01/10 09:26:05;;;;;;;12.83;3.70;;;7.30;99.80;;;;;;5134513;27;20483;-59
2023/01/10 09:28:32;;;;;;;16.13;3.70;;;7.40;99.70;;;;;;5134427;27;20438;-59
2023/01/10 09:30:59;;;;;;;12.93;4.00;;;7.60;99.60;;;;;;5134498;27;20458;-59
2023/01/10 09:33:27;;;;;;;22.83;4.00;;;7.60;99.30;;;;;;5134413;28;20519;-60
2023/01/10 09:35:57;;;;;;;22.53;4.20;;;7.70;99.20;;;;;;5134438;28;20450;-60
2023/01/10 09:38:24;;;;;;;14.70;3.40;;;7.70;99.00;;;;;;5134190;28;20961;-60
2023/01/10 09:41:07;;;;;;;10.33;2.90;;;7.90;99.00;;;;;;5134191;28;20458;-59
2023/01/10 09:43:46;;;;;;;20.30;3.97;;;7.90;98.50;;;;;;5134657;28;20432;-59
2023/01/10 09:46:24;;;;;;;10.10;2.63;;;8.00;98.40;;;;;;5134381;27;20903;-60
2023/01/10 09:48:58;;;;;;;12.37;3.33;;;8.00;98.30;;;;;;5138287;27;20524;-60
2023/01/10 09:51:34;;;;;;;15.63;3.80;;;8.10;98.20;;;;;;5139433;27;20537;-60
2023/01/10 09:54:04;;;;;;;15.17;4.03;;;8.20;98.30;;;;;;5139358;27;20434;-59
2023/01/10 09:56:33;;;;;;;20.97;3.27;;;8.30;98.10;;;;;;5139672;27;20942;-60
2023/01/10 09:59:01;;;;;;;15.33;3.73;;;8.40;97.90;;;;;;5139488;27;20451;-60
2023/01/10 10:01:35;;;;;;;12.17;3.50;;;8.40;97.80;;;;;;5138415;27;20469;-60
2023/01/10 10:04:15;;;;;;;20.57;4.00;;;8.50;97.80;;;;;;5138232;27;20429;-60
2023/01/10 10:06:41;;;;;;;18.07;3.93;;;8.60;97.50;;;;;;5138268;27;20433;-60
2023/01/10 10:09:12;;;;;;;20.13;4.20;;;8.60;96.80;;;;;;5138210;27;20450;-60
2023/01/10 10:11:59;;;;;;;13.30;3.47;;;8.70;97.00;;;;;;5138321;27;20487;-61
2023/01/10 10:14:41;;;;;;;16.33;3.10;;;8.90;97.10;;;;;;5138104;27;20447;-60
2023/01/10 10:17:18;;;;;;;14.03;3.50;;;9.10;96.70;;;;;;5137306;27;20984;-60
2023/01/10 10:20:00;;;;;;;12.77;3.07;;;9.10;96.20;;;;;;5137735;27;20450;-60
2023/01/10 10:22:37;;;;;;;18.83;4.13;;;9.20;95.80;;;;;;5137640;27;20461;-61
2023/01/10 10:25:16;;;;;;;11.73;3.27;;;9.40;95.70;;;;;;5137538;27;20445;-61
2023/01/10 10:27:58;;;;;;;9.27;3.50;;;9.50;95.60;;;;;;5137343;27;20442;-61
2023/01/10 10:30:36;;;;;;;17.03;3.60;;;9.60;95.30;;;;;;5137621;27;20460;-60
2023/01/10 10:33:20;;;;;;;13.57;3.30;;;9.70;95.10;;;;;;5137487;27;20501;-61
2023/01/10 10:35:53;;;;;;;18.17;3.70;;;9.80;94.90;;;;;;5137465;27;20447;-60
2023/01/10 10:38:28;;;;;;;18.33;3.20;;;9.80;94.40;;;;;;5137584;27;20431;-61
2023/01/10 10:40:56;;;;;;;17.33;4.20;;;9.90;94.20;;;;;;5136121;27;21036;-60
2023/01/10 10:43:27;;;;;;;9.30;3.30;;;9.90;94.00;;;;;;5136120;28;20456;-61
2023/01/10 10:45:57;;;;;;;24.27;4.13;;;10.00;93.50;;;;;;5135911;28;20845;-61
2023/01/10 10:48:27;;;;;;;12.57;3.10;;;10.10;93.30;;;;;;5136242;28;20457;-60
2023/01/10 10:51:05;;;;;;;21.13;4.23;;;10.20;93.10;;;;;;5135796;28;20430;-60
2023/01/10 10:53:33;;;;;;;16.70;4.40;;;10.30;93.00;;;;;;5135998;28;20555;-60
2023/01/10 10:56:01;;;;;;;13.73;3.30;;;10.40;92.80;;;;;;5135706;28;20846;-60
2023/01/10 10:58:29;;;;;;;14.33;3.50;;;10.40;92.50;;;;;;5135518;27;20440;-60
2023/01/10 11:00:56;;;;;;;15.30;3.57;;;10.50;92.00;;;;;;5135942;28;20533;-60
2023/01/10 11:03:32;;;;;;;15.50;4.57;;;10.40;91.90;;;;;;5135719;28;20498;-60
2023/01/10 11:06:01;;;;;;;15.73;3.63;;;10.50;92.00;;;;;;5135829;28;20443;-60
2023/01/10 11:08:29;;;;;;;14.53;3.50;;;10.50;91.60;;;;;;5135818;28;20449;-60
2023/01/10 11:10:57;;;;;;;15.03;3.50;;;10.50;91.70;;;;;;5135445;28;20915;-60
2023/01/10 11:13:35;;;;;;;13.67;2.80;;;10.50;91.50;;;;;;5135749;28;20500;-60
2023/01/10 11:16:04;;;;;;;17.90;4.23;;;10.50;91.60;;;;;;5135761;28;20440;-60
2023/01/10 11:18:31;;;;;;;14.67;3.97;;;10.60;91.50;;;;;;5135717;28;20801;-60
2023/01/10 11:21:01;;;;;;;13.80;3.33;;;10.60;91.20;;;;;;5135564;28;20457;-60
2023/01/10 11:23:46;;;;;;;13.73;4.30;;;10.70;91.00;;;;;;5135556;28;20455;-60
2023/01/10 11:26:24;;;;;;;22.93;5.10;;;10.70;91.00;;;;;;5131898;28;20478;-61
2023/01/10 11:28:53;;;;;;;17.63;5.47;;;10.80;90.70;;;;;;5135512;28;20444;-60
2023/01/10 11:31:27;;;;;;;15.83;4.50;;;10.80;90.50;;;;;;5135414;28;20469;-61
2023/01/10 11:33:55;;;;;;;11.33;3.27;;;10.90;90.60;;;;;;5135495;28;20432;-60
2023/01/10 11:36:23;;;;;;;11.53;3.60;;;11.00;90.50;;;;;;5135122;28;20926;-60
2023/01/10 11:39:00;;;;;;;14.33;3.83;;;11.00;89.70;;;;;;5135302;28;20437;-60
2023/01/10 11:41:32;;;;;;;12.53;5.87;;;11.00;89.10;;;;;;5099100;27;1043052;-60
2023/01/10 11:44:16;;;;;;;19.43;4.30;;;11.10;88.80;;;;;;5135921;27;20184;-60
2023/01/10 11:46:44;;;;;;;8.20;3.37;;;11.20;88.70;;;;;;5136124;27;20430;-60
2023/01/10 11:49:18;;;;;;;11.40;4.23;;;11.20;87.90;;;;;;5136716;27;20470;-60
2023/01/10 11:51:48;;;;;;;22.20;4.60;;;11.30;87.70;;;;;;5135987;27;20461;-60
2023/01/10 11:54:20;;;;;;;13.57;3.20;;;11.30;88.20;;;;;;5136013;27;20433;-60
2023/01/10 11:56:56;;;;;;;8.93;2.73;;;11.40;87.10;;;;;;5136001;27;20807;-60
2023/01/10 11:59:24;;;;;;;15.03;4.93;;;11.50;86.10;;;;;;5135991;27;20427;-60
2023/01/10 12:01:57;;;;;;;10.70;2.50;;;11.50;86.10;;;;;;5135753;27;20462;-60
2023/01/10 12:04:26;;;;;;;11.00;2.63;;;11.40;85.80;;;;;;5135563;27;20813;-60
2023/01/10 12:06:57;;;;;;;20.17;3.13;;;11.40;85.00;;;;;;5136649;27;20426;-60
2023/01/10 12:09:35;;;;;;;12.87;3.30;;;11.40;84.20;;;;;;5135569;27;20434;-60
2023/01/10 12:12:03;;;;;;;17.17;3.00;;;11.40;84.50;;;;;;5134995;27;20578;-60
2023/01/10 12:14:30;;;;;;;15.33;3.20;;;11.30;84.50;;;;;;5135675;27;20437;-60
2023/01/10 12:17:00;;;;;;;9.73;3.50;;;11.40;85.00;;;;;;5135504;27;20435;-60
2023/01/10 12:19:28;;;;;;;17.07;2.90;;;11.30;84.60;;;;;;5135140;27;20986;-60
2023/01/10 12:22:04;;;;;;;9.77;3.20;;;11.30;84.60;;;;;;5135075;27;20924;-60
2023/01/10 12:24:38;;;;;;;12.83;3.10;;;11.30;84.20;;;;;;5135473;27;20433;-60
2023/01/10 12:27:06;;;;;;;13.50;2.87;;;11.30;84.50;;;;;;5135312;27;20445;-60
2023/01/10 12:29:36;;;;;;;6.43;2.23;;;11.30;84.60;;;;;;5135991;27;20429;-60
2023/01/10 12:32:05;;;;;;;10.73;2.97;;;11.20;84.10;;;;;;5134811;27;20864;-60
2023/01/10 12:34:38;;;;;;;9.40;2.93;;;11.20;84.80;;;;;;5135300;27;20796;-60
2023/01/10 12:37:16;;;;;;;9.63;2.23;;;11.20;85.00;;;;;;5134950;27;20437;-60
2023/01/10 12:39:47;;;;;;;14.00;3.10;;;11.20;84.90;;;;;;5134902;27;20458;-60
2023/01/10 12:45:19;;;;;;;12.23;2.70;;;11.10;85.20;;;;;;5135110;27;20479;-60
2023/01/10 12:47:59;;;;;;;12.77;3.63;;;11.10;85.40;;;;;;5135851;27;20437;-60
2023/01/10 12:50:31;;;;;;;13.43;2.80;;;11.10;85.70;;;;;;5134974;27;20426;-60
2023/01/10 12:53:03;;;;;;;14.93;3.23;;;11.20;85.00;;;;;;5134216;27;20486;-60
2023/01/10 12:55:34;;;;;;;13.20;2.60;;;11.10;84.70;;;;;;5134939;27;20427;-60
2023/01/10 12:58:04;;;;;;;17.93;2.70;;;11.00;85.20;;;;;;5134865;27;20438;-60
2023/01/10 13:00:34;;;;;;;14.47;3.60;;;11.10;84.70;;;;;;5134811;27;20495;-60
2023/01/10 13:03:07;;;;;;;15.97;2.80;;;11.00;84.30;;;;;;5134372;27;20996;-60
2023/01/10 13:05:33;;;;;;;9.90;3.00;;;11.00;84.20;;;;;;5134706;27;20429;-60
2023/01/10 13:08:05;;;;;;;14.13;2.93;;;11.00;84.30;;;;;;5134699;27;20447;-60